BAW213 EGLL-EGJJ
Flight info
| Callsign | BAW213 |
|---|---|
| Flight time | 0h 28m |
| Altitude | 24000 |
| Route | GOGSI N621 SAM N63 LELNA |
| Aircraft | A320/M-SDE3FGHIRWY/LB1 |
Departure
| Time | 2026-05-03 20:15 |
|---|---|
| Airport | London Heathrow Airport (EGLL) |
Arrival
| Time | 2026-05-03 20:43 |
|---|---|
| Airport | Jersey Airport (EGJJ) |
| Time | Latitude | Longitude | Altitude | Speed | Heading |
|---|---|---|---|---|---|
| 2026-05-03 20:15 | 51.45625 | -0.71678 | 8630 ft | 279 kts | 268° |
| 2026-05-03 20:15 | 51.45572 | -0.74803 | 9575 ft | 282 kts | 267° |
| 2026-05-03 20:15 | 51.45500 | -0.77986 | 10285 ft | 294 kts | 264° |
| 2026-05-03 20:15 | 51.45012 | -0.81253 | 10566 ft | 315 kts | 244° |
| 2026-05-03 20:16 | 51.43725 | -0.84223 | 10807 ft | 335 kts | 226° |
| 2026-05-03 20:16 | 51.42123 | -0.87009 | 11410 ft | 343 kts | 224° |
| 2026-05-03 20:16 | 51.40312 | -0.89523 | 12165 ft | 346 kts | 215° |
| 2026-05-03 20:16 | 51.38315 | -0.91686 | 12930 ft | 349 kts | 213° |
| 2026-05-03 20:17 | 51.36263 | -0.93786 | 13738 ft | 351 kts | 211° |
| 2026-05-03 20:17 | 51.34143 | -0.95761 | 14441 ft | 354 kts | 209° |
| 2026-05-03 20:17 | 51.31978 | -0.97662 | 15104 ft | 357 kts | 208° |
| 2026-05-03 20:17 | 51.29778 | -0.99558 | 15737 ft | 360 kts | 208° |
| 2026-05-03 20:18 | 51.27582 | -1.01526 | 16373 ft | 364 kts | 210° |
| 2026-05-03 20:18 | 51.25418 | -1.03649 | 17036 ft | 367 kts | 212° |
| 2026-05-03 20:18 | 51.23273 | -1.05872 | 17702 ft | 370 kts | 213° |
| 2026-05-03 20:18 | 51.21121 | -1.08153 | 18325 ft | 373 kts | 213° |
| 2026-05-03 20:19 | 51.18949 | -1.10460 | 18936 ft | 376 kts | 213° |
| 2026-05-03 20:19 | 51.16760 | -1.12763 | 19577 ft | 378 kts | 213° |
| 2026-05-03 20:19 | 51.14556 | -1.15056 | 20216 ft | 379 kts | 213° |
| 2026-05-03 20:19 | 51.12337 | -1.17347 | 20834 ft | 381 kts | 212° |
| 2026-05-03 20:20 | 51.10102 | -1.19640 | 21424 ft | 383 kts | 212° |
| 2026-05-03 20:20 | 51.07852 | -1.21932 | 22000 ft | 385 kts | 212° |
| 2026-05-03 20:20 | 51.05619 | -1.24198 | 22560 ft | 387 kts | 212° |
| 2026-05-03 20:20 | 51.03349 | -1.26506 | 23135 ft | 389 kts | 212° |
| 2026-05-03 20:21 | 51.01067 | -1.28834 | 23637 ft | 391 kts | 212° |
| 2026-05-03 20:21 | 50.99519 | -1.30414 | 23823 ft | 392 kts | 212° |
| 2026-05-03 20:21 | 50.96467 | -1.33525 | 23921 ft | 401 kts | 212° |
| 2026-05-03 20:21 | 50.93999 | -1.35724 | 23922 ft | 410 kts | 207° |
| 2026-05-03 20:22 | 50.92281 | -1.37102 | 23924 ft | 411 kts | 207° |
| 2026-05-03 20:22 | 50.89720 | -1.39154 | 23917 ft | 412 kts | 207° |
| 2026-05-03 20:22 | 50.86333 | -1.41862 | 23920 ft | 412 kts | 207° |
| 2026-05-03 20:22 | 50.84599 | -1.43245 | 23920 ft | 412 kts | 207° |
| 2026-05-03 20:23 | 50.82036 | -1.45283 | 23920 ft | 412 kts | 207° |
| 2026-05-03 20:23 | 50.79474 | -1.47314 | 23918 ft | 412 kts | 206° |
| 2026-05-03 20:23 | 50.76909 | -1.49343 | 23920 ft | 412 kts | 206° |
| 2026-05-03 20:23 | 50.74345 | -1.51376 | 23923 ft | 412 kts | 207° |
| 2026-05-03 20:24 | 50.71786 | -1.53409 | 23923 ft | 412 kts | 207° |
| 2026-05-03 20:24 | 50.69225 | -1.55442 | 23925 ft | 412 kts | 207° |
| 2026-05-03 20:24 | 50.66664 | -1.57472 | 23914 ft | 412 kts | 207° |
| 2026-05-03 20:24 | 50.64108 | -1.59498 | 23917 ft | 412 kts | 207° |
| 2026-05-03 20:25 | 50.61541 | -1.61526 | 23922 ft | 412 kts | 206° |
| 2026-05-03 20:25 | 50.58977 | -1.63539 | 23923 ft | 412 kts | 206° |
| 2026-05-03 20:25 | 50.56412 | -1.65546 | 23915 ft | 411 kts | 206° |
| 2026-05-03 20:25 | 50.53853 | -1.67549 | 23911 ft | 411 kts | 206° |
| 2026-05-03 20:26 | 50.51326 | -1.69531 | 23915 ft | 411 kts | 206° |
| 2026-05-03 20:26 | 50.48765 | -1.71537 | 23922 ft | 411 kts | 206° |
| 2026-05-03 20:26 | 50.46205 | -1.73541 | 23932 ft | 411 kts | 206° |
| 2026-05-03 20:26 | 50.43643 | -1.75548 | 23919 ft | 411 kts | 206° |
| 2026-05-03 20:27 | 50.41078 | -1.77557 | 23927 ft | 412 kts | 206° |
| 2026-05-03 20:27 | 50.38519 | -1.79556 | 23928 ft | 412 kts | 206° |
| 2026-05-03 20:27 | 50.35954 | -1.81557 | 23933 ft | 412 kts | 206° |
| 2026-05-03 20:27 | 50.33392 | -1.83554 | 23934 ft | 412 kts | 206° |
| 2026-05-03 20:28 | 50.30824 | -1.85549 | 23925 ft | 412 kts | 206° |
| 2026-05-03 20:28 | 50.28260 | -1.87534 | 23925 ft | 412 kts | 206° |
| 2026-05-03 20:28 | 50.25692 | -1.89520 | 23931 ft | 412 kts | 206° |
| 2026-05-03 20:28 | 50.23128 | -1.91501 | 23939 ft | 412 kts | 206° |
| 2026-05-03 20:29 | 50.20556 | -1.93485 | 23939 ft | 412 kts | 206° |
| 2026-05-03 20:29 | 50.17986 | -1.95466 | 23869 ft | 411 kts | 206° |
| 2026-05-03 20:29 | 50.15430 | -1.97438 | 23027 ft | 409 kts | 206° |
| 2026-05-03 20:29 | 50.12942 | -1.99357 | 22340 ft | 391 kts | 206° |
| 2026-05-03 20:30 | 50.10523 | -2.01221 | 21674 ft | 385 kts | 206° |
| 2026-05-03 20:30 | 50.08135 | -2.03059 | 21019 ft | 381 kts | 206° |
| 2026-05-03 20:30 | 50.05775 | -2.04876 | 20375 ft | 377 kts | 206° |
| 2026-05-03 20:30 | 50.03432 | -2.06677 | 19746 ft | 374 kts | 206° |
| 2026-05-03 20:31 | 50.01077 | -2.08347 | 19147 ft | 371 kts | 200° |
| 2026-05-03 20:31 | 49.98583 | -2.09369 | 18522 ft | 371 kts | 190° |
| 2026-05-03 20:31 | 49.96014 | -2.09644 | 17864 ft | 371 kts | 180° |
| 2026-05-03 20:31 | 49.93465 | -2.09176 | 17244 ft | 369 kts | 171° |
| 2026-05-03 20:32 | 49.90964 | -2.08386 | 16662 ft | 364 kts | 171° |
| 2026-05-03 20:32 | 49.88492 | -2.07618 | 16085 ft | 360 kts | 171° |
| 2026-05-03 20:32 | 49.86044 | -2.06865 | 15491 ft | 357 kts | 171° |
| 2026-05-03 20:32 | 49.83607 | -2.06219 | 14895 ft | 358 kts | 174° |
| 2026-05-03 20:33 | 49.81088 | -2.05805 | 14304 ft | 367 kts | 175° |
| 2026-05-03 20:33 | 49.78544 | -2.05418 | 13727 ft | 367 kts | 175° |
| 2026-05-03 20:33 | 49.76006 | -2.05040 | 13081 ft | 365 kts | 175° |
| 2026-05-03 20:33 | 49.73485 | -2.04667 | 12440 ft | 362 kts | 175° |
| 2026-05-03 20:34 | 49.70990 | -2.04299 | 11912 ft | 358 kts | 175° |
| 2026-05-03 20:34 | 49.68509 | -2.03933 | 11435 ft | 358 kts | 176° |
| 2026-05-03 20:34 | 49.66041 | -2.03568 | 10936 ft | 355 kts | 175° |
| 2026-05-03 20:34 | 49.63587 | -2.03203 | 10443 ft | 353 kts | 176° |
| 2026-05-03 20:35 | 49.61152 | -2.02837 | 10038 ft | 350 kts | 176° |
| 2026-05-03 20:35 | 49.58740 | -2.02471 | 9924 ft | 341 kts | 176° |
| 2026-05-03 20:35 | 49.56447 | -2.02115 | 9944 ft | 320 kts | 176° |
| 2026-05-03 20:35 | 49.54310 | -2.01775 | 9942 ft | 295 kts | 176° |
| 2026-05-03 20:36 | 49.52359 | -2.01453 | 9947 ft | 273 kts | 176° |
| 2026-05-03 20:36 | 49.50486 | -2.01139 | 9733 ft | 273 kts | 176° |
| 2026-05-03 20:36 | 49.48587 | -2.00822 | 9195 ft | 274 kts | 175° |
| 2026-05-03 20:36 | 49.46714 | -2.00511 | 8673 ft | 268 kts | 175° |
| 2026-05-03 20:37 | 49.44879 | -2.00210 | 8156 ft | 263 kts | 175° |
| 2026-05-03 20:37 | 49.43080 | -1.99920 | 7634 ft | 259 kts | 175° |
| 2026-05-03 20:37 | 49.41321 | -1.99641 | 7154 ft | 255 kts | 175° |
| 2026-05-03 20:37 | 49.39564 | -1.99370 | 6667 ft | 252 kts | 175° |
| 2026-05-03 20:38 | 49.37830 | -1.99109 | 6164 ft | 250 kts | 176° |
| 2026-05-03 20:38 | 49.36108 | -1.98856 | 5645 ft | 247 kts | 176° |
| 2026-05-03 20:38 | 49.34403 | -1.98607 | 5134 ft | 245 kts | 176° |
| 2026-05-03 20:38 | 49.32716 | -1.98361 | 4629 ft | 243 kts | 176° |
| 2026-05-03 20:39 | 49.31041 | -1.98116 | 4106 ft | 241 kts | 176° |
| 2026-05-03 20:39 | 49.29383 | -1.97871 | 3587 ft | 239 kts | 176° |
| 2026-05-03 20:39 | 49.27704 | -1.97765 | 2811 ft | 245 kts | 188° |
| 2026-05-03 20:39 | 49.26036 | -1.98355 | 2180 ft | 245 kts | 200° |
| 2026-05-03 20:40 | 49.24491 | -1.99209 | 2026 ft | 226 kts | 201° |
| 2026-05-03 20:40 | 49.23196 | -2.00307 | 1998 ft | 201 kts | 224° |
| 2026-05-03 20:40 | 49.22417 | -2.01900 | 2021 ft | 175 kts | 246° |
| 2026-05-03 20:40 | 49.22106 | -2.03633 | 2023 ft | 165 kts | 263° |
| 2026-05-03 20:41 | 49.21972 | -2.05276 | 1938 ft | 149 kts | 263° |
| 2026-05-03 20:41 | 49.21847 | -2.06811 | 1825 ft | 143 kts | 263° |
| 2026-05-03 20:41 | 49.21724 | -2.08312 | 1646 ft | 141 kts | 263° |
| 2026-05-03 20:41 | 49.21601 | -2.09799 | 1456 ft | 140 kts | 263° |
| 2026-05-03 20:42 | 49.21480 | -2.11276 | 1262 ft | 140 kts | 263° |
| 2026-05-03 20:42 | 49.21358 | -2.12751 | 1072 ft | 139 kts | 263° |
| 2026-05-03 20:42 | 49.21237 | -2.14213 | 879 ft | 138 kts | 263° |
| 2026-05-03 20:42 | 49.21117 | -2.15672 | 692 ft | 138 kts | 263° |
| 2026-05-03 20:43 | 49.21021 | -2.16831 | 547 ft | 137 kts | 263° |
| 2026-05-03 20:43 | 49.20901 | -2.18270 | 359 ft | 135 kts | 263° |
| 2026-05-03 20:43 | 49.20795 | -2.19567 | 285 ft | 77 kts | 263° |
| 2026-05-03 20:43 | 49.20723 | -2.20079 | 286 ft | 25 kts | 219° |
| 2026-05-03 20:44 | 49.20594 | -2.20092 | 284 ft | 0 kts | 174° |
| 2026-05-03 20:44 | 49.20588 | -2.20091 | 289 ft | 4 kts | 174° |
| 2026-05-03 20:44 | 49.20523 | -2.20009 | 284 ft | 16 kts | 108° |
| 2026-05-03 20:44 | 49.20441 | -2.19903 | 288 ft | 14 kts | 134° |
| 2026-05-03 20:45 | 49.20445 | -2.19785 | 284 ft | 6 kts | 53° |
| 2026-05-03 20:45 | 49.20486 | -2.19790 | 284 ft | 6 kts | 352° |
| 2026-05-03 20:45 | 49.20492 | -2.19791 | 284 ft | 0 kts | 354° |